Hlavní strana
METAR-TAF:

METAR-TAF

Letiště :

Wallis, Francie

zeměpisná šířka: 13-14S, zeměpisná délka: 176-10W, výška: 23 m

METAR: chybějící

Čas: 02:12 (14:12 UTC)

Předpověď počasí

Zpráva byla vytvořena před 3 hodinami a 12 minutami, v 11:00 UTC
Předpověď platná od 19 v 12 UTC do 20 v 12 UTC
Východojihovýchodní vítr 10 kt
Viditelnost 10 km a více
Polojasno ve výšce 2000 ft
Polojasno ve výšce 3000 ft
Dočasný
od 19 v 12 UTC do 20 v 03 UTC
Viditelnost: 5000 m
Skoro jasno ve výšce 2000 ft, Vertikální cumulus.
dešťové přeháňky
Pravděpodobnost 40% :
Dočasný
od 20 v 03 UTC do 20 v 12 UTC
Viditelnost: 2000 m
Oblačno až skoro zataženo ve výšce 1000 ft
Polojasno ve výšce 1600 ft, Cumulonimbus.
bouřka, déšť

TAF: NLWW 191100Z 1912/2012 11010KT 9999 SCT020 SCT030 TEMPO 1912/2003 5000 SHRA FEW020TCU PROB40 TEMPO 2003/2012 2000 TSRA BKN010 SCT016CB

Stav a předpovědi počasí z více než 4 000 letišť (zprávy METAR a TAF).

Červené a žluté tečky na mapě představují dostupné meteorologické stanice.

Když kurzor umístíte na tečku, zobrazí se název stanice.

Pak kliknutím zobrazíte stav a předpověď počasí.

Chcete-li změnit mapu, kliknutím na zelené tlačítko se znaménkem +mapu přiblížíte, kliknutím na zelené tlačítko se znaménkem – mapu oddálíte a kliknutím na zelené šipky přejdete na sousední mapy.


METAR-TAF: